sensor_id;sensor_type;location;lat;lon;timestamp;P1;durP1;ratioP1;P2;durP2;ratioP2
36597;SDS011;22607;49.550;11.940;2023-05-16T00:01:47;8.27;;;3.47;;
36597;SDS011;22607;49.550;11.940;2023-05-16T00:04:13;7.65;;;3.50;;
36597;SDS011;22607;49.550;11.940;2023-05-16T00:06:40;11.52;;;4.25;;
36597;SDS011;22607;49.550;11.940;2023-05-16T00:09:07;8.10;;;3.72;;
36597;SDS011;22607;49.550;11.940;2023-05-16T00:11:34;8.20;;;3.63;;
36597;SDS011;22607;49.550;11.940;2023-05-16T00:14:01;7.40;;;3.20;;
36597;SDS011;22607;49.550;11.940;2023-05-16T00:16:28;7.63;;;3.70;;
36597;SDS011;22607;49.550;11.940;2023-05-16T00:18:55;9.88;;;3.85;;
36597;SDS011;22607;49.550;11.940;2023-05-16T00:21:26;7.63;;;3.60;;
36597;SDS011;22607;49.550;11.940;2023-05-16T00:23:53;7.90;;;4.00;;
36597;SDS011;22607;49.550;11.940;2023-05-16T00:26:19;6.88;;;3.17;;
36597;SDS011;22607;49.550;11.940;2023-05-16T00:28:46;8.32;;;3.78;;
36597;SDS011;22607;49.550;11.940;2023-05-16T00:31:13;8.65;;;4.22;;
36597;SDS011;22607;49.550;11.940;2023-05-16T00:33:39;8.30;;;4.13;;
36597;SDS011;22607;49.550;11.940;2023-05-16T00:36:06;9.27;;;4.45;;
36597;SDS011;22607;49.550;11.940;2023-05-16T00:38:33;8.45;;;4.40;;
36597;SDS011;22607;49.550;11.940;2023-05-16T00:41:00;8.38;;;4.70;;
36597;SDS011;22607;49.550;11.940;2023-05-16T00:43:27;9.25;;;4.70;;
36597;SDS011;22607;49.550;11.940;2023-05-16T00:45:54;9.70;;;4.55;;
36597;SDS011;22607;49.550;11.940;2023-05-16T00:48:20;8.57;;;4.07;;
36597;SDS011;22607;49.550;11.940;2023-05-16T00:50:47;8.68;;;4.07;;
36597;SDS011;22607;49.550;11.940;2023-05-16T00:53:14;7.85;;;3.95;;
36597;SDS011;22607;49.550;11.940;2023-05-16T00:55:42;8.48;;;4.18;;
36597;SDS011;22607;49.550;11.940;2023-05-16T00:58:09;8.95;;;4.25;;
36597;SDS011;22607;49.550;11.940;2023-05-16T01:00:37;8.88;;;4.70;;
36597;SDS011;22607;49.550;11.940;2023-05-16T01:03:04;8.38;;;4.10;;
36597;SDS011;22607;49.550;11.940;2023-05-16T01:05:31;8.35;;;4.03;;
36597;SDS011;22607;49.550;11.940;2023-05-16T01:07:58;8.82;;;4.15;;
36597;SDS011;22607;49.550;11.940;2023-05-16T01:10:25;8.48;;;4.18;;
36597;SDS011;22607;49.550;11.940;2023-05-16T01:13:21;7.72;;;3.47;;
36597;SDS011;22607;49.550;11.940;2023-05-16T01:15:59;7.65;;;3.63;;
36597;SDS011;22607;49.550;11.940;2023-05-16T01:18:37;7.93;;;3.72;;
36597;SDS011;22607;49.550;11.940;2023-05-16T01:21:23;8.35;;;3.50;;
36597;SDS011;22607;49.550;11.940;2023-05-16T01:24:08;7.63;;;3.65;;
36597;SDS011;22607;49.550;11.940;2023-05-16T01:26:58;7.93;;;3.85;;
36597;SDS011;22607;49.550;11.940;2023-05-16T01:29:25;7.57;;;3.72;;
36597;SDS011;22607;49.550;11.940;2023-05-16T01:31:52;7.38;;;3.50;;
36597;SDS011;22607;49.550;11.940;2023-05-16T01:34:18;7.30;;;3.40;;
36597;SDS011;22607;49.550;11.940;2023-05-16T01:36:52;8.05;;;3.72;;
36597;SDS011;22607;49.550;11.940;2023-05-16T01:42:13;7.97;;;3.53;;
36597;SDS011;22607;49.550;11.940;2023-05-16T01:44:42;7.82;;;3.50;;
36597;SDS011;22607;49.550;11.940;2023-05-16T01:47:12;8.95;;;3.53;;
36597;SDS011;22607;49.550;11.940;2023-05-16T01:49:42;8.05;;;3.42;;
36597;SDS011;22607;49.550;11.940;2023-05-16T01:52:12;7.88;;;3.63;;
36597;SDS011;22607;49.550;11.940;2023-05-16T01:54:45;9.20;;;4.90;;
36597;SDS011;22607;49.550;11.940;2023-05-16T01:57:13;10.60;;;5.53;;
36597;SDS011;22607;49.550;11.940;2023-05-16T01:59:41;8.90;;;4.70;;
36597;SDS011;22607;49.550;11.940;2023-05-16T02:02:09;8.82;;;4.10;;
36597;SDS011;22607;49.550;11.940;2023-05-16T02:04:36;8.20;;;3.70;;
36597;SDS011;22607;49.550;11.940;2023-05-16T02:07:02;7.57;;;3.38;;
36597;SDS011;22607;49.550;11.940;2023-05-16T02:09:29;7.32;;;3.50;;
36597;SDS011;22607;49.550;11.940;2023-05-16T02:11:56;7.28;;;3.28;;
36597;SDS011;22607;49.550;11.940;2023-05-16T02:14:22;8.88;;;4.47;;
36597;SDS011;22607;49.550;11.940;2023-05-16T02:16:51;9.75;;;4.43;;
36597;SDS011;22607;49.550;11.940;2023-05-16T02:19:17;8.13;;;3.80;;
36597;SDS011;22607;49.550;11.940;2023-05-16T02:21:44;8.90;;;4.10;;
36597;SDS011;22607;49.550;11.940;2023-05-16T02:24:10;7.72;;;3.53;;
36597;SDS011;22607;49.550;11.940;2023-05-16T02:26:37;8.10;;;3.70;;
36597;SDS011;22607;49.550;11.940;2023-05-16T02:29:04;8.15;;;3.90;;
36597;SDS011;22607;49.550;11.940;2023-05-16T02:31:31;8.13;;;3.90;;
36597;SDS011;22607;49.550;11.940;2023-05-16T02:33:59;8.00;;;3.80;;
36597;SDS011;22607;49.550;11.940;2023-05-16T02:36:26;8.18;;;3.53;;
36597;SDS011;22607;49.550;11.940;2023-05-16T02:38:53;7.53;;;3.17;;
36597;SDS011;22607;49.550;11.940;2023-05-16T02:41:19;7.65;;;3.45;;
36597;SDS011;22607;49.550;11.940;2023-05-16T02:43:47;8.25;;;3.78;;
36597;SDS011;22607;49.550;11.940;2023-05-16T02:46:24;8.63;;;4.32;;
36597;SDS011;22607;49.550;11.940;2023-05-16T02:48:52;7.50;;;3.63;;
36597;SDS011;22607;49.550;11.940;2023-05-16T02:51:19;8.90;;;3.80;;
36597;SDS011;22607;49.550;11.940;2023-05-16T02:53:47;9.07;;;4.30;;
36597;SDS011;22607;49.550;11.940;2023-05-16T02:56:14;8.80;;;4.47;;
36597;SDS011;22607;49.550;11.940;2023-05-16T02:58:41;9.38;;;5.15;;
36597;SDS011;22607;49.550;11.940;2023-05-16T03:01:08;8.15;;;4.45;;
36597;SDS011;22607;49.550;11.940;2023-05-16T03:03:35;8.90;;;4.30;;
36597;SDS011;22607;49.550;11.940;2023-05-16T03:06:02;8.65;;;4.15;;
36597;SDS011;22607;49.550;11.940;2023-05-16T03:08:29;8.32;;;3.90;;
36597;SDS011;22607;49.550;11.940;2023-05-16T03:10:56;9.07;;;5.38;;
36597;SDS011;22607;49.550;11.940;2023-05-16T03:13:22;7.88;;;4.03;;
36597;SDS011;22607;49.550;11.940;2023-05-16T03:15:49;7.68;;;3.65;;
36597;SDS011;22607;49.550;11.940;2023-05-16T03:18:16;7.75;;;3.80;;
36597;SDS011;22607;49.550;11.940;2023-05-16T03:20:42;7.82;;;3.70;;
36597;SDS011;22607;49.550;11.940;2023-05-16T03:23:09;9.38;;;4.53;;
36597;SDS011;22607;49.550;11.940;2023-05-16T03:25:36;7.82;;;3.67;;
36597;SDS011;22607;49.550;11.940;2023-05-16T03:28:04;8.32;;;3.90;;
36597;SDS011;22607;49.550;11.940;2023-05-16T03:30:31;8.68;;;4.07;;
36597;SDS011;22607;49.550;11.940;2023-05-16T03:32:57;8.27;;;3.70;;
36597;SDS011;22607;49.550;11.940;2023-05-16T03:35:24;7.70;;;3.60;;
36597;SDS011;22607;49.550;11.940;2023-05-16T03:37:51;8.05;;;3.80;;
36597;SDS011;22607;49.550;11.940;2023-05-16T03:40:17;8.75;;;3.92;;
36597;SDS011;22607;49.550;11.940;2023-05-16T03:42:44;9.40;;;5.32;;
36597;SDS011;22607;49.550;11.940;2023-05-16T03:45:11;9.55;;;5.72;;
36597;SDS011;22607;49.550;11.940;2023-05-16T03:47:38;10.13;;;5.10;;
36597;SDS011;22607;49.550;11.940;2023-05-16T03:50:04;9.02;;;4.43;;
36597;SDS011;22607;49.550;11.940;2023-05-16T03:52:32;8.50;;;4.10;;
36597;SDS011;22607;49.550;11.940;2023-05-16T03:54:59;9.23;;;4.45;;
36597;SDS011;22607;49.550;11.940;2023-05-16T03:57:28;7.68;;;3.72;;
36597;SDS011;22607;49.550;11.940;2023-05-16T03:59:56;9.38;;;4.10;;
36597;SDS011;22607;49.550;11.940;2023-05-16T04:02:23;9.27;;;3.95;;
36597;SDS011;22607;49.550;11.940;2023-05-16T04:04:50;9.40;;;4.45;;
36597;SDS011;22607;49.550;11.940;2023-05-16T04:07:16;10.00;;;5.25;;
36597;SDS011;22607;49.550;11.940;2023-05-16T04:09:43;11.18;;;6.38;;
36597;SDS011;22607;49.550;11.940;2023-05-16T04:12:09;11.23;;;6.10;;
36597;SDS011;22607;49.550;11.940;2023-05-16T04:14:36;10.75;;;5.35;;
36597;SDS011;22607;49.550;11.940;2023-05-16T04:17:03;9.70;;;4.70;;
36597;SDS011;22607;49.550;11.940;2023-05-16T04:19:30;10.20;;;4.88;;
36597;SDS011;22607;49.550;11.940;2023-05-16T04:21:56;9.23;;;4.93;;
36597;SDS011;22607;49.550;11.940;2023-05-16T04:24:23;8.80;;;4.22;;
36597;SDS011;22607;49.550;11.940;2023-05-16T04:26:51;10.85;;;5.75;;
36597;SDS011;22607;49.550;11.940;2023-05-16T04:29:18;10.27;;;6.07;;
36597;SDS011;22607;49.550;11.940;2023-05-16T04:31:44;9.38;;;5.15;;
36597;SDS011;22607;49.550;11.940;2023-05-16T04:34:11;9.13;;;4.95;;
36597;SDS011;22607;49.550;11.940;2023-05-16T04:36:38;10.43;;;5.18;;
36597;SDS011;22607;49.550;11.940;2023-05-16T04:39:05;9.90;;;4.47;;
36597;SDS011;22607;49.550;11.940;2023-05-16T04:41:32;8.57;;;4.30;;
36597;SDS011;22607;49.550;11.940;2023-05-16T04:44:01;9.63;;;4.35;;
36597;SDS011;22607;49.550;11.940;2023-05-16T04:46:29;8.60;;;4.60;;
36597;SDS011;22607;49.550;11.940;2023-05-16T04:48:56;9.07;;;4.50;;
36597;SDS011;22607;49.550;11.940;2023-05-16T04:51:23;9.15;;;5.03;;
36597;SDS011;22607;49.550;11.940;2023-05-16T04:53:49;9.00;;;4.90;;
36597;SDS011;22607;49.550;11.940;2023-05-16T04:56:16;9.00;;;4.85;;
36597;SDS011;22607;49.550;11.940;2023-05-16T04:58:42;9.80;;;5.38;;
36597;SDS011;22607;49.550;11.940;2023-05-16T05:01:09;11.73;;;6.30;;
36597;SDS011;22607;49.550;11.940;2023-05-16T05:03:36;9.52;;;5.20;;
36597;SDS011;22607;49.550;11.940;2023-05-16T05:06:02;9.40;;;4.82;;
36597;SDS011;22607;49.550;11.940;2023-05-16T05:08:29;9.07;;;4.30;;
36597;SDS011;22607;49.550;11.940;2023-05-16T05:10:56;9.80;;;5.20;;
36597;SDS011;22607;49.550;11.940;2023-05-16T05:13:22;9.57;;;5.22;;
36597;SDS011;22607;49.550;11.940;2023-05-16T05:15:49;9.48;;;5.63;;
36597;SDS011;22607;49.550;11.940;2023-05-16T05:18:17;10.07;;;5.53;;
36597;SDS011;22607;49.550;11.940;2023-05-16T05:20:45;11.38;;;6.55;;
36597;SDS011;22607;49.550;11.940;2023-05-16T05:23:11;10.38;;;6.50;;
36597;SDS011;22607;49.550;11.940;2023-05-16T05:25:38;9.88;;;5.78;;
36597;SDS011;22607;49.550;11.940;2023-05-16T05:28:05;12.75;;;7.85;;
36597;SDS011;22607;49.550;11.940;2023-05-16T05:30:31;14.63;;;8.63;;
36597;SDS011;22607;49.550;11.940;2023-05-16T05:32:58;13.48;;;8.13;;
36597;SDS011;22607;49.550;11.940;2023-05-16T05:35:25;11.77;;;6.95;;
36597;SDS011;22607;49.550;11.940;2023-05-16T05:37:52;9.80;;;5.50;;
36597;SDS011;22607;49.550;11.940;2023-05-16T05:40:18;10.55;;;5.70;;
36597;SDS011;22607;49.550;11.940;2023-05-16T05:42:45;10.90;;;6.28;;
36597;SDS011;22607;49.550;11.940;2023-05-16T05:45:13;8.90;;;5.07;;
36597;SDS011;22607;49.550;11.940;2023-05-16T05:47:41;10.90;;;6.30;;
36597;SDS011;22607;49.550;11.940;2023-05-16T05:50:08;10.63;;;6.22;;
36597;SDS011;22607;49.550;11.940;2023-05-16T05:52:36;10.75;;;6.88;;
36597;SDS011;22607;49.550;11.940;2023-05-16T05:55:03;11.85;;;6.63;;
36597;SDS011;22607;49.550;11.940;2023-05-16T05:57:30;11.73;;;6.63;;
36597;SDS011;22607;49.550;11.940;2023-05-16T06:00:00;11.60;;;7.30;;
36597;SDS011;22607;49.550;11.940;2023-05-16T06:02:27;12.50;;;8.40;;
36597;SDS011;22607;49.550;11.940;2023-05-16T06:04:54;13.70;;;8.15;;
36597;SDS011;22607;49.550;11.940;2023-05-16T06:07:21;10.88;;;7.53;;
36597;SDS011;22607;49.550;11.940;2023-05-16T06:09:47;10.88;;;6.22;;
36597;SDS011;22607;49.550;11.940;2023-05-16T06:12:14;10.30;;;6.30;;
36597;SDS011;22607;49.550;11.940;2023-05-16T06:14:40;10.00;;;6.53;;
36597;SDS011;22607;49.550;11.940;2023-05-16T06:17:07;11.50;;;7.68;;
36597;SDS011;22607;49.550;11.940;2023-05-16T06:19:34;10.85;;;6.53;;
36597;SDS011;22607;49.550;11.940;2023-05-16T06:22:00;11.05;;;7.35;;
36597;SDS011;22607;49.550;11.940;2023-05-16T06:24:27;10.77;;;6.72;;
36597;SDS011;22607;49.550;11.940;2023-05-16T06:26:54;12.38;;;7.45;;
36597;SDS011;22607;49.550;11.940;2023-05-16T06:29:21;12.13;;;6.72;;
36597;SDS011;22607;49.550;11.940;2023-05-16T06:31:48;11.52;;;7.07;;
36597;SDS011;22607;49.550;11.940;2023-05-16T06:34:15;11.18;;;7.03;;
36597;SDS011;22607;49.550;11.940;2023-05-16T06:36:41;12.43;;;7.55;;
36597;SDS011;22607;49.550;11.940;2023-05-16T06:39:09;10.45;;;6.50;;
36597;SDS011;22607;49.550;11.940;2023-05-16T06:41:35;10.35;;;6.32;;
36597;SDS011;22607;49.550;11.940;2023-05-16T06:44:02;10.20;;;6.10;;
36597;SDS011;22607;49.550;11.940;2023-05-16T06:46:30;10.93;;;6.05;;
36597;SDS011;22607;49.550;11.940;2023-05-16T06:48:57;11.13;;;6.25;;
36597;SDS011;22607;49.550;11.940;2023-05-16T06:51:23;10.15;;;6.30;;
36597;SDS011;22607;49.550;11.940;2023-05-16T06:53:50;10.55;;;6.30;;
36597;SDS011;22607;49.550;11.940;2023-05-16T06:56:16;10.45;;;6.75;;
36597;SDS011;22607;49.550;11.940;2023-05-16T06:58:43;11.57;;;7.05;;
36597;SDS011;22607;49.550;11.940;2023-05-16T07:01:09;11.18;;;6.53;;
36597;SDS011;22607;49.550;11.940;2023-05-16T07:03:41;11.75;;;6.50;;
36597;SDS011;22607;49.550;11.940;2023-05-16T07:06:08;11.52;;;6.50;;
36597;SDS011;22607;49.550;11.940;2023-05-16T07:08:34;10.43;;;6.35;;
36597;SDS011;22607;49.550;11.940;2023-05-16T07:11:02;11.00;;;6.22;;
36597;SDS011;22607;49.550;11.940;2023-05-16T07:13:28;10.00;;;5.68;;
36597;SDS011;22607;49.550;11.940;2023-05-16T07:15:55;11.75;;;7.03;;
36597;SDS011;22607;49.550;11.940;2023-05-16T07:18:21;10.43;;;6.00;;
36597;SDS011;22607;49.550;11.940;2023-05-16T07:20:48;10.38;;;6.07;;
36597;SDS011;22607;49.550;11.940;2023-05-16T07:23:16;11.23;;;6.72;;
36597;SDS011;22607;49.550;11.940;2023-05-16T07:25:42;12.07;;;6.38;;
36597;SDS011;22607;49.550;11.940;2023-05-16T07:28:09;10.70;;;6.65;;
36597;SDS011;22607;49.550;11.940;2023-05-16T07:30:36;11.77;;;6.40;;
36597;SDS011;22607;49.550;11.940;2023-05-16T07:33:03;10.40;;;6.43;;
36597;SDS011;22607;49.550;11.940;2023-05-16T07:35:30;11.13;;;6.22;;
36597;SDS011;22607;49.550;11.940;2023-05-16T07:37:56;10.07;;;5.65;;
36597;SDS011;22607;49.550;11.940;2023-05-16T07:40:23;12.05;;;6.22;;
36597;SDS011;22607;49.550;11.940;2023-05-16T07:42:53;12.15;;;6.85;;
36597;SDS011;22607;49.550;11.940;2023-05-16T07:45:20;12.20;;;6.63;;
36597;SDS011;22607;49.550;11.940;2023-05-16T07:47:47;11.15;;;5.50;;
36597;SDS011;22607;49.550;11.940;2023-05-16T07:50:13;10.70;;;5.53;;
36597;SDS011;22607;49.550;11.940;2023-05-16T07:52:40;10.45;;;6.20;;
36597;SDS011;22607;49.550;11.940;2023-05-16T07:55:07;10.63;;;5.70;;
36597;SDS011;22607;49.550;11.940;2023-05-16T07:57:34;11.10;;;6.88;;
36597;SDS011;22607;49.550;11.940;2023-05-16T08:00:01;9.80;;;5.57;;
36597;SDS011;22607;49.550;11.940;2023-05-16T08:02:30;11.02;;;6.40;;
36597;SDS011;22607;49.550;11.940;2023-05-16T08:04:57;10.50;;;6.18;;
36597;SDS011;22607;49.550;11.940;2023-05-16T08:07:23;8.85;;;5.15;;
36597;SDS011;22607;49.550;11.940;2023-05-16T08:09:50;10.55;;;5.65;;
36597;SDS011;22607;49.550;11.940;2023-05-16T08:12:17;10.18;;;6.07;;
36597;SDS011;22607;49.550;11.940;2023-05-16T08:14:44;10.43;;;5.57;;
36597;SDS011;22607;49.550;11.940;2023-05-16T08:17:10;10.15;;;5.05;;
36597;SDS011;22607;49.550;11.940;2023-05-16T08:19:37;12.50;;;5.22;;
36597;SDS011;22607;49.550;11.940;2023-05-16T08:22:05;14.52;;;5.57;;
36597;SDS011;22607;49.550;11.940;2023-05-16T08:24:33;8.93;;;4.65;;
36597;SDS011;22607;49.550;11.940;2023-05-16T08:27:00;9.63;;;5.90;;
36597;SDS011;22607;49.550;11.940;2023-05-16T08:29:26;10.93;;;5.63;;
36597;SDS011;22607;49.550;11.940;2023-05-16T08:31:53;9.57;;;5.30;;
36597;SDS011;22607;49.550;11.940;2023-05-16T08:34:21;11.45;;;5.63;;
36597;SDS011;22607;49.550;11.940;2023-05-16T08:36:47;11.80;;;6.10;;
36597;SDS011;22607;49.550;11.940;2023-05-16T08:39:14;9.50;;;4.93;;
36597;SDS011;22607;49.550;11.940;2023-05-16T08:41:41;8.93;;;5.07;;
36597;SDS011;22607;49.550;11.940;2023-05-16T08:44:07;8.65;;;4.93;;
36597;SDS011;22607;49.550;11.940;2023-05-16T08:46:36;9.32;;;4.10;;
36597;SDS011;22607;49.550;11.940;2023-05-16T08:49:06;10.02;;;5.22;;
36597;SDS011;22607;49.550;11.940;2023-05-16T08:51:34;10.75;;;5.40;;
36597;SDS011;22607;49.550;11.940;2023-05-16T08:54:03;8.43;;;5.00;;
36597;SDS011;22607;49.550;11.940;2023-05-16T08:56:35;9.65;;;5.38;;
36597;SDS011;22607;49.550;11.940;2023-05-16T08:59:03;11.88;;;5.38;;
36597;SDS011;22607;49.550;11.940;2023-05-16T09:01:30;11.82;;;5.20;;
36597;SDS011;22607;49.550;11.940;2023-05-16T09:03:58;10.52;;;4.90;;
36597;SDS011;22607;49.550;11.940;2023-05-16T09:06:26;9.10;;;4.70;;
36597;SDS011;22607;49.550;11.940;2023-05-16T09:08:53;8.43;;;4.10;;
36597;SDS011;22607;49.550;11.940;2023-05-16T09:11:20;8.82;;;4.50;;
36597;SDS011;22607;49.550;11.940;2023-05-16T09:13:47;11.77;;;4.85;;
36597;SDS011;22607;49.550;11.940;2023-05-16T09:16:15;8.30;;;4.40;;
36597;SDS011;22607;49.550;11.940;2023-05-16T09:18:44;8.75;;;4.30;;
36597;SDS011;22607;49.550;11.940;2023-05-16T09:21:26;8.77;;;4.45;;
36597;SDS011;22607;49.550;11.940;2023-05-16T09:23:54;9.60;;;5.10;;
36597;SDS011;22607;49.550;11.940;2023-05-16T09:26:21;9.73;;;4.70;;
36597;SDS011;22607;49.550;11.940;2023-05-16T09:28:48;7.93;;;3.80;;
36597;SDS011;22607;49.550;11.940;2023-05-16T09:31:24;9.25;;;4.57;;
36597;SDS011;22607;49.550;11.940;2023-05-16T09:33:54;10.98;;;4.95;;
36597;SDS011;22607;49.550;11.940;2023-05-16T09:36:21;8.63;;;4.60;;
36597;SDS011;22607;49.550;11.940;2023-05-16T09:38:51;8.95;;;4.05;;
36597;SDS011;22607;49.550;11.940;2023-05-16T09:41:20;9.13;;;3.75;;
36597;SDS011;22607;49.550;11.940;2023-05-16T09:43:47;7.97;;;4.22;;
36597;SDS011;22607;49.550;11.940;2023-05-16T09:46:14;8.52;;;3.92;;
36597;SDS011;22607;49.550;11.940;2023-05-16T09:48:43;10.38;;;5.13;;
36597;SDS011;22607;49.550;11.940;2023-05-16T09:51:11;8.77;;;4.50;;
36597;SDS011;22607;49.550;11.940;2023-05-16T09:53:39;8.98;;;5.18;;
36597;SDS011;22607;49.550;11.940;2023-05-16T09:58:37;8.93;;;5.05;;
36597;SDS011;22607;49.550;11.940;2023-05-16T10:01:05;9.18;;;4.53;;
36597;SDS011;22607;49.550;11.940;2023-05-16T10:03:33;9.40;;;4.35;;
36597;SDS011;22607;49.550;11.940;2023-05-16T10:06:02;8.52;;;3.97;;
36597;SDS011;22607;49.550;11.940;2023-05-16T10:08:30;9.60;;;4.07;;
36597;SDS011;22607;49.550;11.940;2023-05-16T10:11:02;8.00;;;3.78;;
36597;SDS011;22607;49.550;11.940;2023-05-16T10:13:31;8.75;;;4.05;;
36597;SDS011;22607;49.550;11.940;2023-05-16T10:16:00;9.30;;;3.90;;
36597;SDS011;22607;49.550;11.940;2023-05-16T10:18:33;9.25;;;4.10;;
36597;SDS011;22607;49.550;11.940;2023-05-16T10:21:04;8.43;;;4.03;;
36597;SDS011;22607;49.550;11.940;2023-05-16T10:23:37;9.75;;;3.65;;
36597;SDS011;22607;49.550;11.940;2023-05-16T10:26:07;10.07;;;4.90;;
36597;SDS011;22607;49.550;11.940;2023-05-16T10:28:34;8.90;;;3.50;;
36597;SDS011;22607;49.550;11.940;2023-05-16T10:31:01;7.93;;;4.13;;
36597;SDS011;22607;49.550;11.940;2023-05-16T10:33:28;8.23;;;4.10;;
36597;SDS011;22607;49.550;11.940;2023-05-16T10:35:55;9.45;;;4.00;;
36597;SDS011;22607;49.550;11.940;2023-05-16T10:38:22;8.57;;;4.10;;
36597;SDS011;22607;49.550;11.940;2023-05-16T10:40:49;8.07;;;3.72;;
36597;SDS011;22607;49.550;11.940;2023-05-16T10:43:23;7.90;;;3.85;;
36597;SDS011;22607;49.550;11.940;2023-05-16T10:46:08;7.95;;;3.60;;
36597;SDS011;22607;49.550;11.940;2023-05-16T10:48:36;10.02;;;3.67;;
36597;SDS011;22607;49.550;11.940;2023-05-16T10:54:04;7.40;;;3.70;;
36597;SDS011;22607;49.550;11.940;2023-05-16T10:56:33;8.02;;;3.95;;
36597;SDS011;22607;49.550;11.940;2023-05-16T10:59:00;9.48;;;3.97;;
36597;SDS011;22607;49.550;11.940;2023-05-16T11:01:28;8.77;;;3.85;;
36597;SDS011;22607;49.550;11.940;2023-05-16T11:06:30;11.15;;;4.00;;
36597;SDS011;22607;49.550;11.940;2023-05-16T11:17:06;8.63;;;4.50;;
36597;SDS011;22607;49.550;11.940;2023-05-16T11:19:40;8.73;;;4.10;;
36597;SDS011;22607;49.550;11.940;2023-05-16T11:22:11;9.25;;;3.72;;
36597;SDS011;22607;49.550;11.940;2023-05-16T11:24:49;9.18;;;4.00;;
36597;SDS011;22607;49.550;11.940;2023-05-16T11:27:41;8.15;;;3.45;;
36597;SDS011;22607;49.550;11.940;2023-05-16T11:30:12;9.18;;;4.38;;
36597;SDS011;22607;49.550;11.940;2023-05-16T11:32:40;10.20;;;4.50;;
36597;SDS011;22607;49.550;11.940;2023-05-16T11:35:09;10.90;;;4.93;;
36597;SDS011;22607;49.550;11.940;2023-05-16T11:37:40;7.40;;;3.53;;
36597;SDS011;22607;49.550;11.940;2023-05-16T11:40:09;8.50;;;3.80;;
36597;SDS011;22607;49.550;11.940;2023-05-16T11:45:09;8.57;;;4.53;;
36597;SDS011;22607;49.550;11.940;2023-05-16T11:47:43;7.80;;;3.50;;
36597;SDS011;22607;49.550;11.940;2023-05-16T11:50:13;8.25;;;3.60;;
36597;SDS011;22607;49.550;11.940;2023-05-16T11:52:48;9.73;;;3.80;;
36597;SDS011;22607;49.550;11.940;2023-05-16T11:55:19;8.25;;;3.70;;
36597;SDS011;22607;49.550;11.940;2023-05-16T11:58:06;6.72;;;2.90;;
36597;SDS011;22607;49.550;11.940;2023-05-16T12:00:33;7.47;;;3.60;;
36597;SDS011;22607;49.550;11.940;2023-05-16T12:03:01;7.60;;;3.30;;
36597;SDS011;22607;49.550;11.940;2023-05-16T12:05:30;8.07;;;3.70;;
36597;SDS011;22607;49.550;11.940;2023-05-16T12:07:58;8.65;;;3.85;;
36597;SDS011;22607;49.550;11.940;2023-05-16T12:10:25;7.97;;;3.95;;
36597;SDS011;22607;49.550;11.940;2023-05-16T12:12:52;9.60;;;4.22;;
36597;SDS011;22607;49.550;11.940;2023-05-16T12:15:20;7.03;;;3.00;;
36597;SDS011;22607;49.550;11.940;2023-05-16T12:17:46;7.40;;;3.50;;
36597;SDS011;22607;49.550;11.940;2023-05-16T12:20:14;11.80;;;3.80;;
36597;SDS011;22607;49.550;11.940;2023-05-16T12:22:42;8.13;;;3.63;;
36597;SDS011;22607;49.550;11.940;2023-05-16T12:25:26;9.68;;;4.38;;
36597;SDS011;22607;49.550;11.940;2023-05-16T12:27:59;8.68;;;3.78;;
36597;SDS011;22607;49.550;11.940;2023-05-16T12:30:28;8.80;;;3.92;;
36597;SDS011;22607;49.550;11.940;2023-05-16T12:35:30;8.85;;;3.97;;
36597;SDS011;22607;49.550;11.940;2023-05-16T12:37:59;8.52;;;3.25;;
36597;SDS011;22607;49.550;11.940;2023-05-16T12:40:29;9.35;;;3.88;;
36597;SDS011;22607;49.550;11.940;2023-05-16T12:42:56;8.43;;;3.67;;
36597;SDS011;22607;49.550;11.940;2023-05-16T12:45:23;9.00;;;3.83;;
36597;SDS011;22607;49.550;11.940;2023-05-16T12:47:52;9.98;;;3.90;;
36597;SDS011;22607;49.550;11.940;2023-05-16T12:50:19;9.07;;;3.58;;
36597;SDS011;22607;49.550;11.940;2023-05-16T12:52:46;7.18;;;2.97;;
36597;SDS011;22607;49.550;11.940;2023-05-16T12:55:17;7.47;;;3.15;;
36597;SDS011;22607;49.550;11.940;2023-05-16T12:57:45;7.88;;;3.33;;
36597;SDS011;22607;49.550;11.940;2023-05-16T13:00:13;7.45;;;3.22;;
36597;SDS011;22607;49.550;11.940;2023-05-16T13:02:41;7.70;;;3.47;;
36597;SDS011;22607;49.550;11.940;2023-05-16T13:05:08;10.10;;;3.70;;
36597;SDS011;22607;49.550;11.940;2023-05-16T13:07:35;7.18;;;3.10;;
36597;SDS011;22607;49.550;11.940;2023-05-16T13:10:07;8.48;;;4.03;;
36597;SDS011;22607;49.550;11.940;2023-05-16T13:12:36;9.45;;;3.58;;
36597;SDS011;22607;49.550;11.940;2023-05-16T13:15:04;7.80;;;3.33;;
36597;SDS011;22607;49.550;11.940;2023-05-16T13:17:37;8.80;;;3.30;;
36597;SDS011;22607;49.550;11.940;2023-05-16T13:20:05;8.20;;;3.13;;
36597;SDS011;22607;49.550;11.940;2023-05-16T13:22:38;9.07;;;4.00;;
36597;SDS011;22607;49.550;11.940;2023-05-16T13:25:06;7.43;;;2.90;;
36597;SDS011;22607;49.550;11.940;2023-05-16T13:27:34;8.30;;;3.20;;
36597;SDS011;22607;49.550;11.940;2023-05-16T13:30:01;7.05;;;2.88;;
36597;SDS011;22607;49.550;11.940;2023-05-16T13:32:29;7.78;;;3.40;;
36597;SDS011;22607;49.550;11.940;2023-05-16T13:34:55;8.82;;;3.88;;
36597;SDS011;22607;49.550;11.940;2023-05-16T13:37:22;7.80;;;3.38;;
36597;SDS011;22607;49.550;11.940;2023-05-16T13:39:49;7.15;;;3.47;;
36597;SDS011;22607;49.550;11.940;2023-05-16T13:42:16;8.35;;;3.40;;
36597;SDS011;22607;49.550;11.940;2023-05-16T13:44:43;7.47;;;3.28;;
36597;SDS011;22607;49.550;11.940;2023-05-16T13:47:10;8.10;;;3.38;;
36597;SDS011;22607;49.550;11.940;2023-05-16T13:49:37;8.50;;;4.20;;
36597;SDS011;22607;49.550;11.940;2023-05-16T13:52:04;7.80;;;3.70;;
36597;SDS011;22607;49.550;11.940;2023-05-16T13:54:31;9.40;;;4.15;;
36597;SDS011;22607;49.550;11.940;2023-05-16T13:56:58;9.05;;;3.92;;
36597;SDS011;22607;49.550;11.940;2023-05-16T13:59:26;7.57;;;3.72;;
36597;SDS011;22607;49.550;11.940;2023-05-16T14:02:13;9.55;;;4.28;;
36597;SDS011;22607;49.550;11.940;2023-05-16T14:04:40;9.18;;;4.03;;
36597;SDS011;22607;49.550;11.940;2023-05-16T14:07:06;7.88;;;3.35;;
36597;SDS011;22607;49.550;11.940;2023-05-16T14:09:33;8.20;;;4.10;;
36597;SDS011;22607;49.550;11.940;2023-05-16T14:12:00;7.47;;;3.40;;
36597;SDS011;22607;49.550;11.940;2023-05-16T14:14:28;7.78;;;3.08;;
36597;SDS011;22607;49.550;11.940;2023-05-16T14:16:54;8.60;;;3.08;;
36597;SDS011;22607;49.550;11.940;2023-05-16T14:19:21;7.57;;;3.17;;
36597;SDS011;22607;49.550;11.940;2023-05-16T14:21:48;7.65;;;3.50;;
36597;SDS011;22607;49.550;11.940;2023-05-16T14:24:14;8.02;;;3.22;;
36597;SDS011;22607;49.550;11.940;2023-05-16T14:26:41;8.98;;;2.85;;
36597;SDS011;22607;49.550;11.940;2023-05-16T14:29:07;6.60;;;2.67;;
36597;SDS011;22607;49.550;11.940;2023-05-16T14:31:34;7.70;;;2.60;;
36597;SDS011;22607;49.550;11.940;2023-05-16T14:34:03;6.68;;;2.80;;
36597;SDS011;22607;49.550;11.940;2023-05-16T14:36:31;7.95;;;2.35;;
36597;SDS011;22607;49.550;11.940;2023-05-16T14:39:02;9.20;;;2.47;;
36597;SDS011;22607;49.550;11.940;2023-05-16T14:41:29;6.70;;;2.17;;
36597;SDS011;22607;49.550;11.940;2023-05-16T14:43:56;7.40;;;2.35;;
36597;SDS011;22607;49.550;11.940;2023-05-16T14:46:22;5.95;;;1.88;;
36597;SDS011;22607;49.550;11.940;2023-05-16T14:48:49;6.20;;;2.33;;
36597;SDS011;22607;49.550;11.940;2023-05-16T14:51:16;6.30;;;2.30;;
36597;SDS011;22607;49.550;11.940;2023-05-16T14:53:43;7.20;;;2.85;;
36597;SDS011;22607;49.550;11.940;2023-05-16T14:56:12;8.07;;;3.28;;
36597;SDS011;22607;49.550;11.940;2023-05-16T14:58:38;6.43;;;2.53;;
36597;SDS011;22607;49.550;11.940;2023-05-16T15:01:05;7.85;;;3.03;;